Decoded Metar for PASM (SAINT MARYS in AK, USA) (IATA:KSM) | Meteo·Mobile Aviation Weather
aviador You're here:

PASM Decoded Metar

SAINT MARYS in AK, USA
Report Time2019-03-25 14:02:00
UTC Time2019-03-25 14:21:41
Flight Rules mvfr MVFR
Wind130° at 21 Gusting to 28 kt
W.Decomp.*RWY 17: 12.9 kt HW 16.5 kt LCW
RWY 06: 11.1 kt HW 17.8 kt RCW
W.Rank130° ranks 25
Current wind is above 130° avg. (8.9)
Visibility9999 m
Phenomena:Light Rain
Clouds:Overcast 023 Hf
Expected CloudBase > 400 ft AGL from Temp-Dew spread
Ceiling2,300 ft
Temp02°C (ISA -12)
Dew Point01°C (93% RH)
AAT-7.4°C
QNH1007 hPa
Density Alt-909 ft
Elevation302 ft
Report Wrong Elevation
Raw Report
PASM 251402Z AUTO 13021G28KT 10SM -RA OVC023 02/01 A2974 RMK AO2
PK WND 13028/1356 SLP087 P0002 T00220011 FZRANO=

Extra information for PASM:More info

Metar Taf Metar & Taf Last 4 Metars F.Rules Stats Wind Profile Meteogram Temp Stats Airport Information Weather charts Add Link Nearby VenuesMetar ALERT Operation Metar Decoded Social comments

AIRNAV info for PASM